Time;durP1;ratioP1;P1;durP2;ratioP2;P2;SDS_P1;SDS_P2;PMS_P1;PMS_P2;Temp;Humidity;BMP_temperature;BMP_pressure;BME280_temperature;BME280_humidity;BME280_pressure;Samples;Min_cycle;Max_cycle;Signal;HPM_P1;HPM_P2
2022/12/26 00:00:31;;;;;;;10.27;6.10;;;;;;;5.25;71.99;97919.84;4890464;29;20201;-73
2022/12/26 00:02:58;;;;;;;8.93;5.47;;;;;;;5.21;72.09;97920.75;4891859;29;20217;-73
2022/12/26 00:05:25;;;;;;;7.00;4.87;;;;;;;5.24;72.65;97937.81;4890452;29;20296;-73
2022/12/26 00:07:52;;;;;;;7.90;5.00;;;;;;;5.10;72.38;97942.22;4892262;29;20230;-72
2022/12/26 00:10:19;;;;;;;10.23;4.40;;;;;;;4.95;73.21;97936.38;4894293;29;20291;-72
2022/12/26 00:12:47;;;;;;;5.93;4.13;;;;;;;5.07;73.94;97943.09;4894651;29;20267;-73
2022/12/26 00:15:15;;;;;;;8.07;5.03;;;;;;;5.20;73.24;97934.44;4878260;29;20193;-73
2022/12/26 00:17:41;;;;;;;10.50;5.00;;;;;;;5.40;72.05;97949.63;4877211;29;20200;-72
2022/12/26 00:20:09;;;;;;;11.77;6.90;;;;;;;5.42;72.08;97947.91;4878254;29;20215;-73
2022/12/26 00:22:36;;;;;;;10.13;7.00;;;;;;;5.36;72.22;97948.81;4876772;29;20717;-72
2022/12/26 00:25:05;;;;;;;11.77;6.87;;;;;;;5.48;72.51;97965.81;4895210;29;20648;-74
2022/12/26 00:27:32;;;;;;;10.23;6.47;;;;;;;5.41;71.38;97972.72;4893681;29;20205;-73
2022/12/26 00:29:59;;;;;;;10.93;6.73;;;;;;;5.37;72.30;97965.06;4877474;29;20208;-73
2022/12/26 00:32:26;;;;;;;9.03;5.97;;;;;;;5.28;70.47;97939.47;4893625;29;20204;-72
2022/12/26 00:34:53;;;;;;;10.37;6.20;;;;;;;5.40;71.04;97959.91;4877339;29;20209;-72
2022/12/26 00:37:20;;;;;;;8.30;6.03;;;;;;;5.10;71.76;97957.63;4894596;29;20277;-73
2022/12/26 00:39:47;;;;;;;7.80;5.67;;;;;;;4.79;72.32;97952.78;4876472;29;20267;-73
2022/12/26 00:42:14;;;;;;;7.30;4.73;;;;;;;4.72;73.72;97958.81;4894566;29;20633;-73
2022/12/26 00:44:40;;;;;;;8.90;5.17;;;;;;;4.81;72.67;97957.91;4893431;29;20200;-72
2022/12/26 00:47:07;;;;;;;8.13;5.33;;;;;;;4.91;73.02;97960.38;4894503;29;20251;-73
2022/12/26 00:49:34;;;;;;;8.80;5.53;;;;;;;4.89;71.85;97959.53;4893750;29;20233;-72
2022/12/26 00:52:24;;;;;;;8.33;4.53;;;;;;;4.60;73.15;97948.66;4893141;29;20198;-72
2022/12/26 00:54:51;;;;;;;6.83;4.33;;;;;;;4.63;73.17;97958.91;4894619;29;20273;-72
2022/12/26 00:57:18;;;;;;;6.67;4.40;;;;;;;4.73;74.21;97950.28;4893059;29;20199;-71
2022/12/26 00:59:45;;;;;;;8.00;4.53;;;;;;;4.77;73.25;97948.53;4894342;29;20192;-71
2022/12/26 01:04:58;;;;;;;32.73;16.93;;;;;;;4.89;72.83;97967.25;4875158;29;20584;-72
2022/12/26 01:07:25;;;;;;;13.33;7.57;;;;;;;4.74;73.18;97967.34;4875285;29;20200;-71
2022/12/26 01:09:52;;;;;;;9.27;5.33;;;;;;;4.50;73.35;97962.44;4874241;29;20686;-72
2022/12/26 01:12:18;;;;;;;6.03;4.33;;;;;;;4.31;74.44;97968.53;4875338;29;20256;-73
2022/12/26 01:14:45;;;;;;;8.57;4.30;;;;;;;4.08;75.17;97978.09;4874251;29;20197;-71
2022/12/26 01:17:12;;;;;;;7.53;4.70;;;;;;;3.90;76.01;97990.97;4875130;29;20267;-72
2022/12/26 01:19:39;;;;;;;6.73;4.17;;;;;;;3.82;76.86;97985.03;4874144;29;20593;-72
2022/12/26 01:22:06;;;;;;;8.73;4.60;;;;;;;3.59;77.08;97940.72;4874847;29;20751;-72
2022/12/26 01:24:33;;;;;;;7.67;3.93;;;;;;;3.95;76.48;97967.06;4873709;29;20667;-72
2022/12/26 01:27:00;;;;;;;5.27;3.80;;;;;;;4.13;76.31;97960.97;4873962;29;20576;-72
2022/12/26 01:29:27;;;;;;;5.73;3.70;;;;;;;4.10;75.72;97961.00;4875081;29;20215;-72
2022/12/26 01:31:54;;;;;;;5.87;3.90;;;;;;;4.04;75.95;97961.00;4873812;29;20204;-73
2022/12/26 01:34:21;;;;;;;5.97;4.10;;;;;;;4.08;76.50;97962.72;4875205;29;20311;-71
2022/12/26 01:36:48;;;;;;;5.87;4.07;;;;;;;3.96;75.73;97950.81;4873926;29;20192;-72
2022/12/26 01:39:14;;;;;;;5.87;3.97;;;;;;;3.93;76.44;97962.78;4874816;29;20286;-73
2022/12/26 01:41:41;;;;;;;6.03;4.13;;;;;;;3.80;76.77;97958.56;4857843;29;20878;-73
2022/12/26 01:44:46;;;;;;;8.83;4.40;;;;;;;3.80;76.57;97954.31;4874071;29;20567;-73
2022/12/26 01:47:13;;;;;;;11.67;5.33;;;;;;;3.88;76.79;97950.00;4874829;29;20196;-73
2022/12/26 01:49:43;;;;;;;6.67;4.57;;;;;;;3.93;76.21;97955.09;4873660;29;20224;-73
2022/12/26 01:52:38;;;;;;;5.70;4.30;;;;;;;3.95;76.36;97958.50;4874509;29;20701;-73
2022/12/26 01:55:10;;;;;;;6.07;4.47;;;;;;;3.83;76.56;97956.00;4873063;29;20231;-73
2022/12/26 01:57:46;;;;;;;7.53;4.93;;;;;;;3.70;76.50;97957.78;4873317;29;20739;-73
2022/12/26 02:00:14;;;;;;;7.27;4.80;;;;;;;3.75;76.84;97965.44;4874473;29;20286;-72
2022/12/26 02:05:32;;;;;;;5.10;4.00;;;;;;;3.67;77.38;97967.19;4874046;29;20210;-73
2022/12/26 02:08:08;;;;;;;6.70;4.10;;;;;;;3.62;77.61;97966.34;4874139;29;20196;-71
2022/12/26 02:10:46;;;;;;;6.17;4.37;;;;;;;3.64;77.20;97967.19;4873270;29;20444;-73
2022/12/26 02:13:13;;;;;;;8.37;4.03;;;;;;;3.74;77.12;97956.91;4874114;29;20280;-72
2022/12/26 02:15:40;;;;;;;14.13;8.77;;;;;;;4.00;76.70;97965.28;4873267;29;20223;-72
2022/12/26 02:18:07;;;;;;;13.13;7.90;;;;;;;4.14;76.20;97971.19;4874137;29;20198;-72
2022/12/26 02:20:52;;;;;;;7.17;4.70;;;;;;;4.14;75.87;97985.75;4873557;29;20234;-72
2022/12/26 02:23:34;;;;;;;7.50;4.77;;;;;;;4.17;75.88;97983.16;4872986;29;20209;-72
2022/12/26 02:26:26;;;;;;;6.13;4.80;;;;;;;3.90;76.14;97996.09;4874013;29;20558;-71
2022/12/26 02:28:55;;;;;;;6.40;4.03;;;;;;;3.83;76.36;97991.88;4872988;29;20224;-71
2022/12/26 02:31:44;;;;;;;6.33;4.60;;;;;;;3.69;76.60;97996.19;4873096;29;20197;-71
2022/12/26 02:34:28;;;;;;;5.53;4.37;;;;;;;3.72;76.35;98006.41;4873813;29;20264;-72
2022/12/26 02:37:17;;;;;;;7.97;4.83;;;;;;;3.43;77.75;98010.75;4872666;29;20282;-73
2022/12/26 02:40:02;;;;;;;6.70;4.50;;;;;;;3.39;78.16;98016.75;4856931;29;20199;-72
2022/12/26 02:42:45;;;;;;;7.80;4.50;;;;;;;3.21;78.32;98022.75;4872650;29;20271;-72
2022/12/26 02:48:46;;;;;;;7.90;4.77;;;;;;;3.04;79.59;98042.38;4873639;29;20222;-72
2022/12/26 03:14:32;;;;;;;5.13;3.90;;;;;;;3.61;77.34;97970.59;4873269;29;20192;-72
2022/12/26 03:17:20;;;;;;;10.63;5.73;;;;;;;3.71;77.06;97986.81;4872951;29;20200;-72
2022/12/26 03:19:58;;;;;;;5.20;3.77;;;;;;;3.83;76.83;97991.88;4855870;29;20256;-71
2022/12/26 03:22:50;;;;;;;5.87;4.07;;;;;;;3.93;76.40;97990.97;4873543;29;20195;-73
2022/12/26 03:28:22;;;;;;;6.03;4.10;;;;;;;4.09;75.62;97982.34;4871184;29;20199;-73
2022/12/26 03:30:49;;;;;;;6.93;4.17;;;;;;;3.93;75.45;97970.47;4873359;29;20193;-74
2022/12/26 03:36:10;;;;;;;5.97;4.40;;;;;;;3.87;75.58;97988.44;4873189;29;20308;-73
2022/12/26 03:38:56;;;;;;;4.33;3.90;;;;;;;3.71;76.15;97992.75;4872914;29;20624;-73
2022/12/26 04:19:57;;;;;;;4.87;3.67;;;;;;;2.75;81.35;97975.03;4875910;29;20918;-72
2022/12/26 04:45:25;;;;;;;5.60;4.40;;;;;;;2.99;79.36;98024.47;4892919;29;20283;-73
2022/12/26 04:50:50;;;;;;;6.90;3.80;;;;;;;3.18;77.82;98038.97;4891748;29;20299;-73
2022/12/26 04:53:17;;;;;;;6.50;3.97;;;;;;;3.19;76.95;98048.34;4893474;29;20191;-72
2022/12/26 04:55:45;;;;;;;8.87;4.93;;;;;;;3.10;76.68;98045.81;4891848;29;20199;-73
2022/12/26 04:58:12;;;;;;;9.30;5.70;;;;;;;2.99;76.41;98024.47;4877336;29;20675;-72
2022/12/26 05:00:41;;;;;;;7.23;4.90;;;;;;;3.07;76.44;98033.00;4893748;29;20199;-72
2022/12/26 05:11:33;;;;;;;13.63;8.00;;;;;;;3.24;75.92;98026.16;4875245;29;20188;-73
2022/12/26 05:14:00;;;;;;;11.67;5.70;;;;;;;3.18;76.42;98015.94;4875204;29;20303;-73
2022/12/26 05:30:24;;;;;;;9.70;5.70;;;;;;;2.93;75.70;98039.81;4873807;29;20710;-72
2022/12/26 05:35:38;;;;;;;13.20;7.17;;;;;;;2.84;77.62;98032.16;4875176;29;20747;-72
2022/12/26 05:38:05;;;;;;;13.50;8.23;;;;;;;2.72;77.07;98039.81;4873820;29;20299;-72
2022/12/26 05:40:32;;;;;;;16.27;8.33;;;;;;;2.29;78.28;98036.34;4874924;29;20228;-72
2022/12/26 05:42:59;;;;;;;13.97;9.07;;;;;;;2.22;79.10;98046.53;4873558;29;20208;-73
2022/12/26 05:45:26;;;;;;;12.10;8.53;;;;;;;1.87;79.37;98033.66;4886999;29;20206;-72
2022/12/26 05:48:00;;;;;;;16.17;9.07;;;;;;;1.90;80.41;98043.00;4892210;29;20235;-73
2022/12/26 05:50:28;;;;;;;15.93;7.80;;;;;;;1.84;81.17;98038.72;4892920;29;20225;-73
2022/12/26 05:52:57;;;;;;;12.97;5.97;;;;;;;1.88;81.51;98042.13;4893139;29;20294;-73
2022/12/26 05:55:24;;;;;;;8.00;5.27;;;;;;;1.85;82.29;98044.69;4875669;29;20216;-73
2022/12/26 05:57:51;;;;;;;9.27;5.80;;;;;;;1.87;81.34;98055.78;4893222;29;20205;-73
2022/12/26 06:00:18;;;;;;;11.17;6.53;;;;;;;1.77;82.01;98044.69;4891940;29;20199;-72
2022/12/26 06:02:45;;;;;;;12.00;6.20;;;;;;;1.73;82.08;98058.28;4893171;29;20199;-72
2022/12/26 06:05:12;;;;;;;10.13;6.33;;;;;;;1.68;83.48;98057.38;4875340;29;20199;-72
2022/12/26 06:07:39;;;;;;;8.47;6.17;;;;;;;1.64;83.28;98051.41;4892956;29;20737;-72
2022/12/26 06:10:06;;;;;;;10.00;5.40;;;;;;;1.54;82.71;98047.13;4892679;29;20227;-73
2022/12/26 06:12:34;;;;;;;5.83;5.00;;;;;;;1.58;83.89;98064.16;4892180;29;20227;-72
2022/12/26 06:15:01;;;;;;;8.17;5.07;;;;;;;1.50;83.36;98037.72;4892980;29;20206;-73
2022/12/26 06:17:28;;;;;;;8.30;4.93;;;;;;;1.59;83.41;98052.22;4891922;29;20195;-73
2022/12/26 06:19:55;;;;;;;12.00;5.80;;;;;;;1.72;82.82;98064.22;4893126;29;20199;-72
2022/12/26 06:22:22;;;;;;;8.33;5.27;;;;;;;1.83;83.25;98067.69;4891495;29;20211;-72
2022/12/26 06:24:49;;;;;;;8.60;5.80;;;;;;;1.90;83.15;98068.53;4893486;29;20259;-72
2022/12/26 06:27:16;;;;;;;9.57;5.67;;;;;;;2.01;82.81;98064.34;4876188;29;20199;-72
2022/12/26 06:29:44;;;;;;;9.10;5.53;;;;;;;2.06;82.91;98068.63;4875241;29;20646;-73
2022/12/26 06:32:11;;;;;;;9.70;5.77;;;;;;;2.11;82.88;98084.81;4892636;29;20748;-73
2022/12/26 06:34:38;;;;;;;9.93;6.10;;;;;;;2.09;81.80;98081.41;4891231;29;20191;-73
2022/12/26 06:37:05;;;;;;;16.60;8.57;;;;;;;2.19;81.61;98077.19;4892794;29;20237;-72
2022/12/26 06:39:32;;;;;;;14.07;8.23;;;;;;;2.38;81.93;98073.84;4891690;29;20564;-74
2022/12/26 06:41:59;;;;;;;13.13;7.60;;;;;;;2.51;81.77;98073.03;4892622;29;20326;-74
2022/12/26 06:44:26;;;;;;;11.43;7.13;;;;;;;2.64;80.75;98061.97;4891339;29;20314;-72
2022/12/26 06:46:53;;;;;;;9.87;5.50;;;;;;;2.64;80.87;98066.25;4892254;29;20191;-72
2022/12/26 06:49:20;;;;;;;9.67;5.73;;;;;;;2.84;80.10;98074.78;4892381;29;20290;-72
2022/12/26 06:51:51;;;;;;;10.57;6.93;;;;;;;3.01;79.99;98070.53;4891496;29;20202;-73
2022/12/26 06:54:18;;;;;;;12.47;7.70;;;;;;;3.09;79.35;98077.34;4890151;29;20222;-72
2022/12/26 06:56:44;;;;;;;10.87;7.10;;;;;;;3.21;79.19;98069.66;4889455;29;20231;-73
2022/12/26 06:59:12;;;;;;;9.77;6.30;;;;;;;3.32;79.42;98081.63;4891396;29;20555;-72
2022/12/26 07:01:39;;;;;;;10.80;6.10;;;;;;;3.49;78.96;98083.31;4886396;29;20602;-73
2022/12/26 07:04:06;;;;;;;6.10;4.47;;;;;;;3.63;77.68;98068.75;4892041;29;20188;-73
2022/12/26 07:06:36;;;;;;;7.60;5.10;;;;;;;3.99;77.34;98076.38;4891992;29;20652;-74
2022/12/26 07:09:13;;;;;;;8.37;5.30;;;;;;;4.27;76.56;98077.09;4891239;29;20255;-73
2022/12/26 07:11:43;;;;;;;9.23;5.73;;;;;;;4.52;75.99;98076.13;4891946;29;20202;-73
2022/12/26 07:14:11;;;;;;;10.43;6.27;;;;;;;4.63;74.45;98076.06;4890801;29;20191;-72
2022/12/26 07:16:40;;;;;;;16.37;8.33;;;;;;;4.69;73.95;98076.88;4891745;29;20771;-73
2022/12/26 07:19:10;;;;;;;16.83;9.13;;;;;;;4.63;73.64;98071.78;4893853;29;20755;-73
2022/12/26 07:21:37;;;;;;;15.77;9.40;;;;;;;4.81;73.52;98078.50;4895323;29;20671;-73
2022/12/26 07:24:13;;;;;;;18.03;9.37;;;;;;;4.91;73.47;98085.25;4878695;29;20202;-73
2022/12/26 07:26:41;;;;;;;14.17;9.90;;;;;;;4.79;72.50;98083.66;4894463;29;20202;-74
2022/12/26 07:29:10;;;;;;;11.20;7.23;;;;;;;4.79;73.38;98093.91;4895716;29;20214;-73
2022/12/26 07:31:37;;;;;;;10.87;7.20;;;;;;;4.77;73.27;98090.50;4893550;29;20224;-73
2022/12/26 07:34:05;;;;;;;11.20;8.03;;;;;;;4.83;73.24;98085.34;4899021;29;20211;-73
2022/12/26 07:36:32;;;;;;;14.07;8.30;;;;;;;4.88;74.48;98093.84;4892371;29;20641;-73
2022/12/26 07:38:59;;;;;;;12.40;7.70;;;;;;;4.88;73.82;98093.84;4894364;29;20228;-71
2022/12/26 07:44:13;;;;;;;12.07;8.17;;;;;;;4.89;74.59;98084.44;4894152;29;20203;-72
2022/12/26 07:46:40;;;;;;;10.10;7.43;;;;;;;5.04;74.46;98088.59;4893923;29;20685;-74
2022/12/26 07:49:07;;;;;;;9.43;6.17;;;;;;;5.23;73.62;98108.16;4894245;29;20282;-73
2022/12/26 07:51:34;;;;;;;9.57;6.10;;;;;;;5.15;73.95;98087.69;4893644;29;20238;-73
2022/12/26 07:54:01;;;;;;;7.33;4.97;;;;;;;5.13;73.60;98089.38;4893906;29;20215;-73
2022/12/26 07:56:36;;;;;;;9.93;5.83;;;;;;;5.16;74.14;98109.03;4894105;29;20279;-74
2022/12/26 07:59:03;;;;;;;8.37;4.97;;;;;;;5.30;74.22;98112.34;4895321;29;20225;-73
2022/12/26 08:01:33;;;;;;;6.70;4.90;;;;;;;5.35;74.74;98115.75;4893312;29;20584;-72
2022/12/26 08:04:00;;;;;;;6.63;5.47;;;;;;;5.51;74.58;98122.47;4875133;29;20196;-72
2022/12/26 08:06:27;;;;;;;6.10;4.60;;;;;;;5.43;73.53;98112.25;4876934;29;20202;-73
2022/12/26 08:08:54;;;;;;;11.03;6.33;;;;;;;5.54;73.60;98114.75;4894858;29;20282;-73
2022/12/26 08:11:28;;;;;;;10.00;6.47;;;;;;;5.55;74.26;98111.28;4893356;29;20225;-74
2022/12/26 08:13:56;;;;;;;8.97;5.80;;;;;;;5.67;72.76;98103.47;4894253;29;20731;-73
2022/12/26 08:16:23;;;;;;;8.20;5.80;;;;;;;5.87;73.20;98111.03;4877169;29;20209;-73
2022/12/26 08:18:50;;;;;;;8.53;6.20;;;;;;;6.06;73.16;98115.94;4904071;29;20202;-72
2022/12/26 08:21:17;;;;;;;5.87;4.30;;;;;;;6.02;71.69;98105.75;4913492;29;21155;-74
2022/12/26 08:23:45;;;;;;;6.40;4.77;;;;;;;6.23;72.04;98119.19;4912285;29;20198;-73
2022/12/26 08:26:19;;;;;;;8.47;5.40;;;;;;;6.44;70.50;98106.09;4880675;29;20234;-73
2022/12/26 08:28:46;;;;;;;9.70;6.20;;;;;;;6.69;71.24;98111.75;4883609;29;20209;-73
2022/12/26 08:31:13;;;;;;;12.60;7.83;;;;;;;6.97;69.68;98125.94;4857589;29;20249;-73
2022/12/26 08:33:41;;;;;;;11.97;7.23;;;;;;;6.94;69.90;98109.69;4875227;29;20192;-73
2022/12/26 08:36:11;;;;;;;12.10;6.70;;;;;;;7.21;67.06;98123.00;4875156;29;20295;-72
2022/12/26 08:38:39;;;;;;;7.67;5.83;;;;;;;7.29;66.72;98097.16;4876140;29;20191;-73
2022/12/26 08:41:06;;;;;;;10.30;5.80;;;;;;;7.44;66.99;98102.03;4896077;29;20199;-73
2022/12/26 08:43:34;;;;;;;10.87;6.13;;;;;;;7.52;66.15;98086.47;4880633;29;20268;-74
2022/12/26 08:46:23;;;;;;;14.23;8.07;;;;;;;7.70;66.35;98093.88;4892728;29;20193;-72
2022/12/26 08:48:50;;;;;;;12.50;8.60;;;;;;;7.80;66.45;98091.09;4893271;29;20248;-72
2022/12/26 08:51:20;;;;;;;14.97;7.83;;;;;;;7.62;65.54;98088.84;4893034;29;20246;-73
2022/12/26 08:53:49;;;;;;;14.90;8.97;;;;;;;7.63;66.02;98087.97;4874198;29;20272;-74
2022/12/26 08:56:18;;;;;;;15.93;12.57;;;;;;;7.84;65.51;98091.88;4875023;29;20291;-73
2022/12/26 08:58:46;;;;;;;18.13;12.60;;;;;;;7.99;64.46;98089.91;4900727;29;20202;-73
2022/12/26 09:01:16;;;;;;;16.27;11.60;;;;;;;7.83;65.20;98065.25;4912465;29;20194;-73
2022/12/26 09:03:44;;;;;;;17.40;10.30;;;;;;;7.90;65.49;98066.84;4853494;29;20207;-74
2022/12/26 09:06:14;;;;;;;17.00;10.20;;;;;;;8.08;65.08;98069.06;4901427;29;20282;-73
2022/12/26 09:08:41;;;;;;;17.30;9.83;;;;;;;8.19;65.55;98079.19;4874337;29;20207;-72
2022/12/26 09:11:14;;;;;;;20.00;13.40;;;;;;;8.14;64.54;98062.94;4877763;29;20327;-72
2022/12/26 09:13:43;;;;;;;13.67;10.10;;;;;;;8.11;65.36;98066.44;4885593;29;20341;-72
2022/12/26 09:16:15;;;;;;;16.17;9.77;;;;;;;7.98;65.31;98082.16;4890103;29;20247;-71
2022/12/26 09:18:44;;;;;;;16.00;10.17;;;;;;;8.27;64.79;98076.47;4888181;29;20576;-73
2022/12/26 09:21:14;;;;;;;15.30;11.03;;;;;;;8.16;65.40;98064.59;4874081;29;20226;-73
2022/12/26 09:23:42;;;;;;;19.80;12.10;;;;;;;8.37;65.41;98057.34;4885938;29;20230;-73
2022/12/26 09:26:17;;;;;;;16.77;12.33;;;;;;;8.46;64.43;98064.91;4888655;29;20321;-73
2022/12/26 09:28:45;;;;;;;17.63;11.43;;;;;;;8.66;64.45;98062.72;4884839;29;20206;-73
2022/12/26 09:31:16;;;;;;;20.43;13.87;;;;;;;8.51;64.75;98053.56;4893031;29;20229;-71
2022/12/26 09:33:43;;;;;;;17.00;12.90;;;;;;;8.51;64.01;98037.25;4859736;29;20698;-72
2022/12/26 09:36:18;;;;;;;23.80;14.73;;;;;;;8.74;64.26;98050.50;4892657;29;20620;-72
2022/12/26 09:38:47;;;;;;;21.23;14.13;;;;;;;8.94;64.10;98054.31;4892582;29;20326;-72
2022/12/26 09:41:23;;;;;;;18.40;13.63;;;;;;;8.98;63.64;98055.13;4891562;29;20196;-73
2022/12/26 09:44:15;;;;;;;14.53;10.27;;;;;;;9.08;63.08;98051.44;4876195;29;20199;-72
2022/12/26 09:47:00;;;;;;;11.30;8.33;;;;;;;9.16;62.29;98043.50;4891537;29;20191;-74
2022/12/26 09:49:31;;;;;;;10.73;7.10;;;;;;;9.31;62.26;98037.97;4875294;29;20204;-74
2022/12/26 09:52:02;;;;;;;14.00;9.40;;;;;;;9.17;62.42;98029.69;4875594;29;20325;-74
2022/12/26 09:54:39;;;;;;;9.27;6.00;;;;;;;9.43;62.06;98033.34;4891591;29;20196;-73
2022/12/26 09:57:13;;;;;;;12.77;7.30;;;;;;;9.33;63.15;98025.84;4892807;29;20219;-72
2022/12/26 09:59:54;;;;;;;12.40;7.47;;;;;;;9.36;63.36;98021.44;4874937;29;20230;-74
2022/12/26 10:02:24;;;;;;;13.50;7.37;;;;;;;9.24;63.80;98015.72;4875309;29;20215;-73
2022/12/26 10:04:53;;;;;;;8.73;6.03;;;;;;;9.37;63.82;98023.16;4891855;29;20188;-71
2022/12/26 10:07:41;;;;;;;9.30;6.07;;;;;;;9.35;63.78;98014.59;4891468;29;20599;-73
2022/12/26 10:10:09;;;;;;;10.97;5.20;;;;;;;9.25;63.79;98012.28;4892444;29;20197;-73
2022/12/26 10:12:42;;;;;;;6.97;4.03;;;;;;;9.25;63.94;98013.13;4873869;29;20232;-72
2022/12/26 10:15:33;;;;;;;7.30;4.20;;;;;;;9.48;63.43;98000.44;4891952;29;20659;-73
2022/12/26 10:18:09;;;;;;;8.80;5.13;;;;;;;9.30;63.83;97979.38;4891800;29;20607;-72
2022/12/26 10:21:22;;;;;;;7.67;4.73;;;;;;;9.55;63.23;97993.38;4890843;29;20198;-72
2022/12/26 10:23:56;;;;;;;10.97;4.77;;;;;;;9.59;63.41;97992.41;4891562;29;20243;-73
2022/12/26 10:26:26;;;;;;;9.67;4.43;;;;;;;9.75;63.19;97984.19;4891691;29;20203;-74
2022/12/26 10:28:59;;;;;;;7.60;4.30;;;;;;;9.64;63.00;97980.22;4890982;29;20284;-73
2022/12/26 10:31:36;;;;;;;6.60;5.07;;;;;;;9.85;62.63;97985.63;4891880;29;20224;-75
2022/12/26 10:34:10;;;;;;;4.40;4.00;;;;;;;9.76;62.48;97975.56;4873610;29;20242;-74
2022/12/26 10:36:46;;;;;;;6.87;4.20;;;;;;;9.76;62.30;97947.09;4892053;29;20188;-75
2022/12/26 10:39:17;;;;;;;6.73;4.30;;;;;;;10.03;62.03;97962.72;4874110;29;20203;-73
2022/12/26 10:41:48;;;;;;;5.47;3.67;;;;;;;10.04;62.15;97975.63;4890888;29;20313;-73
2022/12/26 10:44:16;;;;;;;4.73;3.67;;;;;;;9.96;62.29;97953.44;4891684;29;20211;-74
2022/12/26 10:46:55;;;;;;;6.30;3.70;;;;;;;10.03;62.26;97967.91;4873408;29;20212;-74
2022/12/26 10:49:24;;;;;;;6.53;3.70;;;;;;;10.05;62.52;97953.19;4874744;29;20296;-72
2022/12/26 10:51:55;;;;;;;7.97;3.60;;;;;;;10.06;62.54;97954.84;4890521;29;20565;-72
2022/12/26 10:54:22;;;;;;;4.17;2.83;;;;;;;10.04;62.20;97918.69;4890907;29;20242;-74
2022/12/26 10:56:50;;;;;;;7.80;4.67;;;;;;;10.46;62.10;97947.66;4891421;29;20287;-74
2022/12/26 10:59:26;;;;;;;7.40;3.93;;;;;;;10.48;61.72;97958.81;4890902;29;20280;-72
2022/12/26 11:01:53;;;;;;;7.37;3.23;;;;;;;10.41;61.56;97940.00;4891461;29;20676;-72
2022/12/26 11:04:22;;;;;;;4.53;3.17;;;;;;;10.49;61.67;97947.53;4889708;29;20743;-73
2022/12/26 11:07:11;;;;;;;4.53;3.00;;;;;;;10.63;61.79;97943.63;4872609;29;20280;-72
2022/12/26 11:09:41;;;;;;;5.83;3.73;;;;;;;10.60;61.56;97948.91;4889941;29;20208;-73
2022/12/26 11:12:20;;;;;;;6.50;3.67;;;;;;;10.74;61.57;97932.09;4890715;29;20265;-74
2022/12/26 11:14:48;;;;;;;5.53;3.87;;;;;;;11.00;60.86;97932.09;4891876;29;20200;-74
2022/12/26 11:17:30;;;;;;;10.60;4.73;;;;;;;10.98;61.14;97936.47;4873128;29;20214;-74
2022/12/26 11:20:17;;;;;;;7.63;5.40;;;;;;;11.00;60.98;97924.31;4891694;29;20223;-73
2022/12/26 11:22:45;;;;;;;5.87;3.20;;;;;;;11.06;60.25;97930.16;4874465;29;20290;-72
2022/12/26 11:25:29;;;;;;;6.37;3.87;;;;;;;10.98;60.29;97924.38;4891143;29;20724;-71
2022/12/26 11:27:57;;;;;;;4.37;3.70;;;;;;;11.04;60.36;97924.16;4891438;29;20238;-71
2022/12/26 11:30:29;;;;;;;9.33;4.50;;;;;;;11.11;61.04;97923.03;4889911;29;20208;-73
2022/12/26 11:33:23;;;;;;;5.43;4.10;;;;;;;11.19;60.16;97921.03;4891292;29;20579;-72
2022/12/26 11:36:18;;;;;;;4.27;3.50;;;;;;;11.25;59.84;97925.19;4891062;29;20289;-73
2022/12/26 11:38:48;;;;;;;8.17;3.93;;;;;;;11.39;59.96;97915.19;4873798;29;20193;-72
2022/12/26 11:41:31;;;;;;;6.20;4.17;;;;;;;11.36;59.57;97913.53;4891560;29;20660;-73
2022/12/26 11:44:13;;;;;;;13.13;4.73;;;;;;;11.41;59.35;97916.81;4873417;29;20217;-75
2022/12/26 11:47:01;;;;;;;5.73;4.10;;;;;;;11.39;59.98;97912.59;4890579;29;20216;-72
2022/12/26 11:49:32;;;;;;;7.17;4.73;;;;;;;11.48;60.09;97916.59;4874487;29;20576;-71
2022/12/26 11:52:21;;;;;;;4.83;3.70;;;;;;;11.41;59.73;97906.44;4889983;29;20226;-72
2022/12/26 11:54:50;;;;;;;4.13;3.70;;;;;;;11.32;59.56;97903.31;4890843;29;20335;-71
2022/12/26 11:57:21;;;;;;;6.77;4.60;;;;;;;11.37;60.20;97904.00;4890668;29;20187;-73
2022/12/26 11:59:50;;;;;;;6.67;4.83;;;;;;;11.37;60.37;97898.81;4890409;29;20197;-71
2022/12/26 12:02:29;;;;;;;4.87;4.20;;;;;;;11.18;61.04;97901.22;4899077;29;20260;-72
2022/12/26 12:05:06;;;;;;;12.57;4.50;;;;;;;11.21;60.76;97893.31;4879100;29;20204;-73
2022/12/26 12:07:54;;;;;;;3.97;3.27;;;;;;;11.32;59.79;97901.56;4893339;29;20298;-70
2022/12/26 12:10:52;;;;;;;3.97;3.07;;;;;;;11.40;59.40;97898.69;4888763;29;20631;-72
2022/12/26 12:13:36;;;;;;;5.33;3.33;;;;;;;11.40;59.65;97893.50;4858087;29;20351;-71
2022/12/26 12:16:47;;;;;;;3.87;2.83;;;;;;;11.40;59.61;97907.34;4874937;29;20201;-73
2022/12/26 12:19:20;;;;;;;5.63;3.40;;;;;;;11.39;60.54;97899.63;4857435;29;20298;-71
2022/12/26 12:21:49;;;;;;;5.47;3.40;;;;;;;11.41;60.71;97909.03;4884472;29;20322;-72
2022/12/26 12:24:42;;;;;;;5.10;3.30;;;;;;;11.30;60.76;97905.09;4877579;29;20210;-72
2022/12/26 12:27:50;;;;;;;5.73;3.30;;;;;;;11.41;60.18;97906.44;4875946;29;20287;-72
2022/12/26 12:30:21;;;;;;;7.20;3.90;;;;;;;11.52;60.62;97918.19;4876735;29;20299;-73
2022/12/26 12:32:57;;;;;;;4.37;3.27;;;;;;;11.45;60.20;97907.19;4877299;29;20240;-72
2022/12/26 12:35:48;;;;;;;8.97;4.20;;;;;;;11.40;60.11;97922.03;4892885;29;20728;-71
2022/12/26 12:38:36;;;;;;;6.57;3.60;;;;;;;11.58;59.96;97921.38;4894082;29;20257;-72
2022/12/26 12:41:39;;;;;;;5.63;3.07;;;;;;;11.59;59.22;97914.47;4877021;29;20684;-73
2022/12/26 12:44:21;;;;;;;6.07;3.17;;;;;;;11.57;59.64;97918.84;4876061;29;20188;-72
2022/12/26 12:47:15;;;;;;;4.60;2.67;;;;;;;11.52;59.47;97910.41;4894330;29;20189;-72
2022/12/26 12:49:48;;;;;;;4.33;2.90;;;;;;;11.35;59.68;97909.22;4894024;29;20217;-72
2022/12/26 12:52:40;;;;;;;6.50;4.47;;;;;;;11.52;59.83;97902.63;4893218;29;20282;-72
2022/12/26 12:55:22;;;;;;;8.93;5.53;;;;;;;11.59;59.24;97894.56;4877024;29;20623;-71
2022/12/26 12:57:57;;;;;;;7.23;3.67;;;;;;;11.62;58.94;97896.19;4893136;29;20323;-72
2022/12/26 13:00:30;;;;;;;7.13;3.97;;;;;;;11.72;59.12;97900.19;4893445;29;20203;-72
2022/12/26 13:03:11;;;;;;;7.37;4.13;;;;;;;11.67;59.83;97887.38;4893565;29;20199;-73
2022/12/26 13:05:45;;;;;;;5.23;3.70;;;;;;;11.68;59.80;97888.22;4892680;29;20611;-73
2022/12/26 13:08:15;;;;;;;5.40;3.10;;;;;;;11.52;59.81;97889.66;4893941;29;20267;-72
2022/12/26 13:10:52;;;;;;;8.10;3.60;;;;;;;11.65;59.22;97883.09;4892852;29;20280;-72
2022/12/26 13:13:46;;;;;;;5.17;3.47;;;;;;;11.61;59.44;97872.00;4857870;29;20236;-72
2022/12/26 13:16:29;;;;;;;6.37;4.43;;;;;;;11.56;59.49;97868.72;4843571;29;20256;-72
2022/12/26 13:19:03;;;;;;;7.87;4.00;;;;;;;11.68;59.90;97873.50;4873697;29;20202;-72
2022/12/26 13:21:36;;;;;;;6.87;4.60;;;;;;;11.73;59.90;97878.50;4875020;29;20203;-72
2022/12/26 13:24:23;;;;;;;8.13;3.90;;;;;;;11.61;59.79;97871.16;4873333;29;20197;-77
2022/12/26 13:26:53;;;;;;;8.27;4.40;;;;;;;11.72;59.97;97880.28;4873400;29;20197;-72
2022/12/26 13:29:41;;;;;;;7.60;4.10;;;;;;;11.61;59.96;97869.41;4875090;29;20335;-72
2022/12/26 13:33:03;;;;;;;5.57;4.00;;;;;;;11.68;59.62;97883.03;4873384;29;20318;-73
2022/12/26 13:35:56;;;;;;;4.90;3.70;;;;;;;11.65;59.82;97890.88;4873498;29;20206;-73
2022/12/26 13:38:45;;;;;;;10.53;6.57;;;;;;;11.57;59.84;97882.53;4870280;29;20592;-73
2022/12/26 13:44:23;;;;;;;7.23;3.90;;;;;;;11.59;60.65;97898.88;4867311;29;20218;-74
2022/12/26 13:46:55;;;;;;;7.40;4.27;;;;;;;11.56;60.34;97901.63;4874578;29;20279;-73
2022/12/26 13:49:37;;;;;;;7.00;3.80;;;;;;;11.51;60.40;97890.53;4886338;29;20200;-73
2022/12/26 13:52:10;;;;;;;7.47;5.07;;;;;;;11.55;60.76;97892.13;4877022;29;20241;-73
2022/12/26 13:54:46;;;;;;;11.53;5.40;;;;;;;11.54;60.32;97893.88;4873689;29;20277;-72
2022/12/26 13:57:43;;;;;;;7.03;5.20;;;;;;;11.56;60.57;97904.22;4873146;29;20576;-72
2022/12/26 14:00:49;;;;;;;6.20;4.37;;;;;;;11.48;61.00;97902.72;4888092;29;20230;-72
2022/12/26 14:03:26;;;;;;;10.53;4.90;;;;;;;11.51;60.69;97900.91;4877198;29;20300;-73
2022/12/26 14:06:21;;;;;;;9.23;5.50;;;;;;;11.42;60.78;97905.53;4865788;29;20599;-72
2022/12/26 14:09:20;;;;;;;9.93;4.67;;;;;;;11.32;61.34;97898.97;4855946;29;20216;-71
2022/12/26 14:11:59;;;;;;;7.67;5.47;;;;;;;11.27;62.00;97900.88;4853037;29;20275;-73
2022/12/26 14:14:42;;;;;;;8.63;4.33;;;;;;;11.32;61.69;97905.91;4885330;29;20202;-72
2022/12/26 14:17:18;;;;;;;10.20;4.90;;;;;;;11.34;61.41;97910.16;4891056;29;20199;-71
2022/12/26 14:20:35;;;;;;;5.77;4.20;;;;;;;11.29;61.76;97911.22;4890115;29;20232;-70